Time;durP1;ratioP1;P1;durP2;ratioP2;P2;SDS_P1;SDS_P2;PMS_P1;PMS_P2;Temp;Humidity;BMP_temperature;BMP_pressure;BME280_temperature;BME280_humidity;BME280_pressure;Samples;Min_cycle;Max_cycle;Signal;HPM_P1;HPM_P2
2022/02/27 00:00:42;;;;;;;8.57;3.13;;;;;;;;;;5068835;28;20076;-57
2022/02/27 00:03:08;;;;;;;14.70;3.75;;;;;;;;;;5067891;28;20542;-59
2022/02/27 00:05:33;;;;;;;7.82;3.70;;;;;;;;;;5068585;28;20024;-56
2022/02/27 00:07:59;;;;;;;7.35;3.67;;;;;;;;;;5067899;28;20036;-57
2022/02/27 00:10:24;;;;;;;6.55;2.90;;;;;;;;;;5067852;28;20067;-58
2022/02/27 00:12:50;;;;;;;7.72;3.00;;;;;;;;;;5064379;28;20487;-56
2022/02/27 00:15:15;;;;;;;8.77;2.70;;;;;;;;;;5068218;28;20489;-57
2022/02/27 00:17:41;;;;;;;7.57;2.95;;;;;;;;;;5067845;28;20059;-58
2022/02/27 00:20:08;;;;;;;8.55;3.10;;;;;;;;;;5068287;28;20292;-58
2022/02/27 00:22:34;;;;;;;4.82;2.60;;;;;;;;;;5067136;28;20546;-58
2022/02/27 00:25:00;;;;;;;8.80;2.90;;;;;;;;;;5064669;28;20164;-56
2022/02/27 00:27:26;;;;;;;11.48;3.65;;;;;;;;;;5060032;28;20077;-56
2022/02/27 00:29:51;;;;;;;12.43;3.80;;;;;;;;;;5068117;28;20032;-58
2022/02/27 00:32:17;;;;;;;10.45;3.33;;;;;;;;;;5067342;28;20474;-58
2022/02/27 00:34:42;;;;;;;15.40;3.50;;;;;;;;;;5067299;28;20387;-57
2022/02/27 00:37:08;;;;;;;9.05;2.97;;;;;;;;;;5068165;28;20031;-56
2022/02/27 00:39:34;;;;;;;10.20;3.97;;;;;;;;;;5067591;28;20415;-57
2022/02/27 00:41:59;;;;;;;8.02;3.50;;;;;;;;;;5067012;28;20036;-58
2022/02/27 00:44:25;;;;;;;13.82;3.70;;;;;;;;;;5067342;28;20013;-55
2022/02/27 00:46:51;;;;;;;14.77;5.22;;;;;;;;;;5067685;28;20117;-57
2022/02/27 00:49:17;;;;;;;12.70;3.90;;;;;;;;;;5067261;28;20403;-56
2022/02/27 00:51:43;;;;;;;12.75;3.83;;;;;;;;;;5064780;28;20032;-58
2022/02/27 00:54:09;;;;;;;11.90;4.13;;;;;;;;;;5068695;28;20602;-57
2022/02/27 00:56:35;;;;;;;10.30;3.25;;;;;;;;;;5064328;28;20111;-57
2022/02/27 00:59:00;;;;;;;11.73;3.63;;;;;;;;;;5067298;28;20025;-57
2022/02/27 01:01:26;;;;;;;7.07;3.10;;;;;;;;;;5067214;28;20219;-55
2022/02/27 01:03:52;;;;;;;10.98;3.30;;;;;;;;;;5066961;28;20666;-58
2022/02/27 01:06:17;;;;;;;13.43;4.22;;;;;;;;;;5069337;28;20082;-55
2022/02/27 01:08:43;;;;;;;7.32;3.22;;;;;;;;;;5071292;28;20032;-57
2022/02/27 01:11:08;;;;;;;11.85;3.80;;;;;;;;;;5070469;28;20662;-56
2022/02/27 01:13:34;;;;;;;14.88;4.32;;;;;;;;;;5071835;28;20024;-57
2022/02/27 01:15:59;;;;;;;10.32;3.83;;;;;;;;;;5068786;28;20043;-57
2022/02/27 01:18:25;;;;;;;7.60;3.63;;;;;;;;;;5071044;28;20125;-57
2022/02/27 01:20:50;;;;;;;12.98;4.20;;;;;;;;;;5071684;28;20021;-58
2022/02/27 01:23:15;;;;;;;10.38;3.95;;;;;;;;;;5071704;28;20036;-58
2022/02/27 01:25:41;;;;;;;16.42;4.10;;;;;;;;;;5062014;28;20028;-58
2022/02/27 01:28:06;;;;;;;11.30;4.75;;;;;;;;;;5070794;28;20028;-56
2022/02/27 01:30:32;;;;;;;23.80;7.65;;;;;;;;;;5071058;28;20037;-58
2022/02/27 01:32:59;;;;;;;19.95;6.18;;;;;;;;;;5071144;28;20050;-56
2022/02/27 01:35:24;;;;;;;13.77;5.40;;;;;;;;;;5070487;28;20052;-57
2022/02/27 01:37:50;;;;;;;11.07;4.25;;;;;;;;;;5070741;28;20534;-56
2022/02/27 01:40:15;;;;;;;11.40;4.07;;;;;;;;;;5070648;28;20032;-57
2022/02/27 01:42:40;;;;;;;11.18;4.07;;;;;;;;;;5068004;28;20036;-55
2022/02/27 01:45:07;;;;;;;11.25;4.00;;;;;;;;;;5070726;28;20040;-58
2022/02/27 01:47:33;;;;;;;14.02;3.80;;;;;;;;;;5069973;28;20029;-57
2022/02/27 01:49:58;;;;;;;13.73;4.55;;;;;;;;;;5071098;28;20039;-56
2022/02/27 01:52:24;;;;;;;10.63;4.47;;;;;;;;;;5071111;28;20051;-56
2022/02/27 01:54:49;;;;;;;10.50;4.13;;;;;;;;;;5067251;28;20511;-57
2022/02/27 01:57:15;;;;;;;8.88;3.53;;;;;;;;;;5070642;28;20040;-55
2022/02/27 01:59:41;;;;;;;8.80;3.97;;;;;;;;;;5070447;28;20073;-56
2022/02/27 02:02:07;;;;;;;10.30;4.32;;;;;;;;;;5070092;28;20021;-57
2022/02/27 02:04:34;;;;;;;10.27;3.90;;;;;;;;;;5070970;28;20029;-57
2022/02/27 02:07:00;;;;;;;10.32;4.22;;;;;;;;;;5068763;28;20028;-57
2022/02/27 02:09:26;;;;;;;9.77;4.50;;;;;;;;;;5068863;28;20024;-56
2022/02/27 02:11:52;;;;;;;13.75;4.57;;;;;;;;;;5064539;28;20051;-57
2022/02/27 02:14:18;;;;;;;11.50;4.35;;;;;;;;;;5070915;28;20020;-57
2022/02/27 02:16:50;;;;;;;15.82;4.60;;;;;;;;;;5069128;28;20399;-57
2022/02/27 02:19:16;;;;;;;16.58;4.93;;;;;;;;;;5070039;28;20036;-57
2022/02/27 02:21:44;;;;;;;14.38;4.57;;;;;;;;;;5068765;28;20495;-57
2022/02/27 02:24:11;;;;;;;13.00;4.22;;;;;;;;;;5069791;28;20486;-57
2022/02/27 02:26:38;;;;;;;13.88;4.50;;;;;;;;;;5069375;28;20028;-57
2022/02/27 02:29:05;;;;;;;12.38;4.93;;;;;;;;;;5069800;28;20052;-57
2022/02/27 02:31:34;;;;;;;14.00;4.88;;;;;;;;;;5069672;28;20036;-58
2022/02/27 02:34:11;;;;;;;13.80;4.82;;;;;;;;;;5070491;28;20035;-58
2022/02/27 02:36:37;;;;;;;10.48;4.47;;;;;;;;;;5069624;28;20029;-57
2022/02/27 02:39:05;;;;;;;13.57;4.72;;;;;;;;;;5068641;28;20596;-57
2022/02/27 02:41:30;;;;;;;11.95;4.10;;;;;;;;;;5069922;28;20040;-57
2022/02/27 02:43:57;;;;;;;15.38;5.05;;;;;;;;;;5070196;28;20021;-55
2022/02/27 02:46:22;;;;;;;9.63;3.80;;;;;;;;;;5068774;28;20032;-56
2022/02/27 02:48:48;;;;;;;14.95;5.28;;;;;;;;;;5069454;28;20486;-57
2022/02/27 02:51:13;;;;;;;14.57;6.30;;;;;;;;;;5070872;28;20074;-57
2022/02/27 02:53:39;;;;;;;15.07;6.25;;;;;;;;;;5065433;28;20028;-57
2022/02/27 02:56:07;;;;;;;15.27;5.32;;;;;;;;;;5069890;28;20032;-58
2022/02/27 02:58:34;;;;;;;13.15;5.15;;;;;;;;;;5068312;28;20102;-56
2022/02/27 03:01:00;;;;;;;11.65;4.65;;;;;;;;;;5069639;28;20020;-57
2022/02/27 03:03:26;;;;;;;10.80;4.97;;;;;;;;;;5068502;28;20020;-55
2022/02/27 03:05:52;;;;;;;22.65;5.18;;;;;;;;;;5068919;28;20063;-57
2022/02/27 03:08:17;;;;;;;12.50;4.88;;;;;;;;;;5068268;28;20028;-56
2022/02/27 03:10:43;;;;;;;13.43;4.80;;;;;;;;;;5069664;28;20086;-56
2022/02/27 03:13:08;;;;;;;14.52;5.47;;;;;;;;;;5069426;28;20017;-56
2022/02/27 03:15:33;;;;;;;11.30;4.30;;;;;;;;;;5069130;28;20522;-57
2022/02/27 03:17:59;;;;;;;13.57;5.20;;;;;;;;;;5068284;28;20086;-54
2022/02/27 03:20:24;;;;;;;9.43;5.18;;;;;;;;;;5066773;28;20332;-58
2022/02/27 03:22:50;;;;;;;10.85;5.05;;;;;;;;;;5066015;28;20028;-57
2022/02/27 03:25:15;;;;;;;11.10;5.40;;;;;;;;;;5068357;28;20027;-58
2022/02/27 03:27:41;;;;;;;11.88;5.68;;;;;;;;;;5068057;28;20025;-56
2022/02/27 03:30:07;;;;;;;11.23;5.00;;;;;;;;;;5068748;28;20033;-56
2022/02/27 03:32:32;;;;;;;22.02;5.60;;;;;;;;;;5068717;28;20032;-58
2022/02/27 03:34:58;;;;;;;16.48;5.82;;;;;;;;;;5069302;28;20021;-55
2022/02/27 03:37:23;;;;;;;13.73;5.70;;;;;;;;;;5067194;28;20051;-53
2022/02/27 03:39:48;;;;;;;11.93;5.47;;;;;;;;;;5064381;28;20044;-57
2022/02/27 03:42:14;;;;;;;12.80;5.60;;;;;;;;;;5068564;28;20362;-57
2022/02/27 03:44:39;;;;;;;15.95;6.28;;;;;;;;;;5069171;28;20110;-56
2022/02/27 03:47:06;;;;;;;13.38;5.82;;;;;;;;;;5067541;28;20116;-56
2022/02/27 03:49:31;;;;;;;15.45;5.93;;;;;;;;;;5061741;28;20377;-58
2022/02/27 03:51:57;;;;;;;15.15;6.80;;;;;;;;;;5068913;28;20285;-54
2022/02/27 03:54:22;;;;;;;19.85;6.78;;;;;;;;;;5062330;28;20434;-58
2022/02/27 03:56:48;;;;;;;14.05;6.25;;;;;;;;;;5068798;28;20025;-57
2022/02/27 03:59:13;;;;;;;16.70;6.32;;;;;;;;;;5067933;28;20041;-57
2022/02/27 04:01:39;;;;;;;11.75;6.22;;;;;;;;;;5068365;28;20028;-56
2022/02/27 04:04:05;;;;;;;13.52;5.97;;;;;;;;;;5068718;28;20029;-58
2022/02/27 04:06:31;;;;;;;17.33;6.45;;;;;;;;;;5068927;28;20414;-57
2022/02/27 04:08:56;;;;;;;12.60;6.32;;;;;;;;;;5065884;28;20107;-56
2022/02/27 04:11:21;;;;;;;16.90;6.90;;;;;;;;;;5068147;28;20068;-57
2022/02/27 04:13:47;;;;;;;15.18;6.65;;;;;;;;;;5068634;28;20471;-57
2022/02/27 04:16:13;;;;;;;16.67;6.72;;;;;;;;;;5068178;28;20063;-56
2022/02/27 04:18:38;;;;;;;16.23;7.03;;;;;;;;;;5067038;28;20020;-56
2022/02/27 04:21:04;;;;;;;13.40;6.00;;;;;;;;;;5068545;28;20021;-56
2022/02/27 04:23:30;;;;;;;15.93;6.53;;;;;;;;;;5064051;28;20028;-57
2022/02/27 04:25:55;;;;;;;14.43;5.82;;;;;;;;;;5064426;28;20024;-56
2022/02/27 04:28:21;;;;;;;13.32;5.60;;;;;;;;;;5067071;28;20020;-56
2022/02/27 04:30:47;;;;;;;15.95;6.03;;;;;;;;;;5067814;28;20238;-58
2022/02/27 04:33:12;;;;;;;12.15;6.18;;;;;;;;;;5067730;28;20028;-57
2022/02/27 04:35:38;;;;;;;17.45;5.93;;;;;;;;;;5066752;28;20021;-58
2022/02/27 04:38:03;;;;;;;19.27;7.00;;;;;;;;;;5062114;28;20105;-58
2022/02/27 04:40:29;;;;;;;13.20;6.10;;;;;;;;;;5066084;28;20021;-57
2022/02/27 04:42:54;;;;;;;12.57;5.63;;;;;;;;;;5068075;28;20437;-56
2022/02/27 04:45:20;;;;;;;12.45;5.65;;;;;;;;;;5067562;28;20399;-57
2022/02/27 04:47:45;;;;;;;16.33;6.20;;;;;;;;;;5067569;28;20066;-56
2022/02/27 04:50:11;;;;;;;14.40;5.97;;;;;;;;;;5068582;28;20032;-57
2022/02/27 04:52:36;;;;;;;13.52;5.78;;;;;;;;;;5067973;28;20024;-57
2022/02/27 04:55:03;;;;;;;14.70;5.93;;;;;;;;;;5066833;28;20024;-57
2022/02/27 04:57:29;;;;;;;17.45;5.55;;;;;;;;;;5068035;28;20467;-56
2022/02/27 04:59:54;;;;;;;14.98;5.63;;;;;;;;;;5066921;28;20024;-56
2022/02/27 05:02:19;;;;;;;13.20;5.50;;;;;;;;;;5067296;28;20020;-57
2022/02/27 05:04:45;;;;;;;18.90;6.80;;;;;;;;;;5068252;28;20024;-56
2022/02/27 05:07:10;;;;;;;13.70;5.45;;;;;;;;;;5068052;28;20336;-57
2022/02/27 05:09:36;;;;;;;13.25;6.05;;;;;;;;;;5067482;28;20016;-56
2022/02/27 05:12:01;;;;;;;13.32;6.10;;;;;;;;;;5065586;28;20384;-57
2022/02/27 05:14:27;;;;;;;13.10;6.30;;;;;;;;;;5067580;28;20036;-57
2022/02/27 05:16:52;;;;;;;15.30;6.93;;;;;;;;;;5067589;28;20028;-57
2022/02/27 05:19:18;;;;;;;13.70;6.65;;;;;;;;;;5067169;28;20021;-57
2022/02/27 05:21:43;;;;;;;20.08;6.82;;;;;;;;;;5063371;28;20023;-57
2022/02/27 05:24:10;;;;;;;15.60;6.50;;;;;;;;;;5065793;28;20036;-54
2022/02/27 05:26:35;;;;;;;13.65;5.95;;;;;;;;;;5067913;28;20020;-57
2022/02/27 05:29:01;;;;;;;18.00;6.50;;;;;;;;;;5067329;28;20044;-56
2022/02/27 05:31:27;;;;;;;19.40;7.05;;;;;;;;;;5065888;28;20432;-57
2022/02/27 05:33:52;;;;;;;18.05;7.22;;;;;;;;;;5067867;28;20499;-56
2022/02/27 05:36:18;;;;;;;16.27;6.70;;;;;;;;;;5065946;28;20021;-57
2022/02/27 05:38:44;;;;;;;21.27;7.30;;;;;;;;;;5067044;28;20024;-57
2022/02/27 05:41:09;;;;;;;16.83;6.93;;;;;;;;;;5066932;28;20043;-57
2022/02/27 05:43:35;;;;;;;14.52;6.53;;;;;;;;;;5067546;28;20021;-58
2022/02/27 05:46:00;;;;;;;16.15;7.30;;;;;;;;;;5067195;28;20578;-56
2022/02/27 05:48:26;;;;;;;23.52;8.85;;;;;;;;;;5067150;28;20028;-57
2022/02/27 05:50:51;;;;;;;23.15;8.27;;;;;;;;;;5063542;28;20111;-56
2022/02/27 05:53:17;;;;;;;24.23;9.45;;;;;;;;;;5070001;28;20111;-56
2022/02/27 05:55:42;;;;;;;21.77;9.38;;;;;;;;;;5066024;28;20136;-57
2022/02/27 05:58:08;;;;;;;20.85;8.98;;;;;;;;;;5068746;28;20040;-57
2022/02/27 06:00:33;;;;;;;28.70;9.63;;;;;;;;;;5070854;28;20453;-57
2022/02/27 06:02:59;;;;;;;27.13;9.13;;;;;;;;;;5069921;28;20543;-56
2022/02/27 06:05:24;;;;;;;107.32;23.60;;;;;;;;;;5071202;28;20068;-56
2022/02/27 06:07:49;;;;;;;28.67;10.02;;;;;;;;;;5066288;28;20072;-57
2022/02/27 06:10:15;;;;;;;18.15;7.38;;;;;;;;;;5070527;28;20119;-58
2022/02/27 06:12:50;;;;;;;18.48;7.13;;;;;;;;;;5070333;28;20047;-57
2022/02/27 06:15:19;;;;;;;14.85;6.32;;;;;;;;;;5069445;28;20402;-56
2022/02/27 06:17:45;;;;;;;45.50;13.23;;;;;;;;;;5070365;28;20037;-55
2022/02/27 06:20:11;;;;;;;33.90;10.98;;;;;;;;;;5070917;28;20028;-58
2022/02/27 06:22:45;;;;;;;18.70;7.88;;;;;;;;;;5065985;28;20033;-57
2022/02/27 06:25:12;;;;;;;14.80;6.80;;;;;;;;;;5070947;28;20031;-59
2022/02/27 06:27:42;;;;;;;17.88;7.07;;;;;;;;;;5065638;28;20031;-58
2022/02/27 06:30:12;;;;;;;18.58;7.65;;;;;;;;;;5070273;28;20028;-58
2022/02/27 06:32:37;;;;;;;16.10;7.30;;;;;;;;;;5068825;28;20021;-58
2022/02/27 06:35:04;;;;;;;20.50;8.77;;;;;;;;;;5070266;28;20124;-58
2022/02/27 06:37:30;;;;;;;20.20;9.50;;;;;;;;;;5069459;28;20090;-58
2022/02/27 06:39:56;;;;;;;15.57;7.80;;;;;;;;;;5070451;28;20029;-58
2022/02/27 06:42:21;;;;;;;23.20;9.00;;;;;;;;;;5068405;28;20032;-58
2022/02/27 06:44:46;;;;;;;23.10;10.77;;;;;;;;;;5070487;28;20060;-58
2022/02/27 06:47:12;;;;;;;19.83;8.43;;;;;;;;;;5070706;28;20103;-58
2022/02/27 06:49:37;;;;;;;20.40;7.90;;;;;;;;;;5070260;28;20042;-58
2022/02/27 06:52:03;;;;;;;14.77;6.25;;;;;;;;;;5066525;28;20039;-57
2022/02/27 06:54:28;;;;;;;15.18;7.03;;;;;;;;;;5070695;28;20024;-58
2022/02/27 06:56:54;;;;;;;14.73;7.32;;;;;;;;;;5070353;28;20020;-57
2022/02/27 06:59:19;;;;;;;18.70;8.93;;;;;;;;;;5069364;28;20047;-57
2022/02/27 07:01:45;;;;;;;19.15;9.00;;;;;;;;;;5068710;28;20041;-58
2022/02/27 07:04:10;;;;;;;17.63;8.35;;;;;;;;;;5068915;28;20052;-57
2022/02/27 07:06:36;;;;;;;17.95;7.80;;;;;;;;;;5063171;28;20037;-58
2022/02/27 07:09:01;;;;;;;18.55;7.75;;;;;;;;;;5069342;28;20036;-58
2022/02/27 07:11:26;;;;;;;15.15;7.50;;;;;;;;;;5069541;28;20024;-57
2022/02/27 07:13:52;;;;;;;16.92;7.45;;;;;;;;;;5068753;28;20044;-57
2022/02/27 07:16:22;;;;;;;19.08;7.63;;;;;;;;;;5069051;28;20029;-57
2022/02/27 07:18:53;;;;;;;18.92;6.28;;;;;;;;;;5068972;28;20035;-58
2022/02/27 07:21:18;;;;;;;14.57;6.55;;;;;;;;;;5068152;28;20388;-57
2022/02/27 07:23:44;;;;;;;15.07;6.85;;;;;;;;;;5066953;28;20032;-58
2022/02/27 07:26:09;;;;;;;13.82;6.45;;;;;;;;;;5069419;28;20037;-57
2022/02/27 07:28:35;;;;;;;15.00;6.85;;;;;;;;;;5068639;28;20434;-58
2022/02/27 07:31:00;;;;;;;16.20;6.85;;;;;;;;;;5068793;28;20094;-57
2022/02/27 07:33:25;;;;;;;19.92;8.98;;;;;;;;;;5068002;28;20101;-58
2022/02/27 07:35:51;;;;;;;14.93;6.40;;;;;;;;;;5067407;28;20503;-57
2022/02/27 07:38:17;;;;;;;17.63;7.78;;;;;;;;;;5066955;28;20055;-57
2022/02/27 07:40:42;;;;;;;13.73;7.05;;;;;;;;;;5069354;28;20029;-57
2022/02/27 07:43:07;;;;;;;15.07;7.10;;;;;;;;;;5063270;28;20031;-57
2022/02/27 07:45:33;;;;;;;16.27;7.05;;;;;;;;;;5068383;28;20060;-57
2022/02/27 07:47:58;;;;;;;15.75;7.70;;;;;;;;;;5068725;28;20086;-57
2022/02/27 07:50:24;;;;;;;16.30;7.72;;;;;;;;;;5069119;28;20030;-57
2022/02/27 07:52:49;;;;;;;16.40;7.45;;;;;;;;;;5068937;28;20040;-57
2022/02/27 07:55:18;;;;;;;13.40;6.55;;;;;;;;;;5068614;28;20526;-57
2022/02/27 07:57:43;;;;;;;17.63;7.07;;;;;;;;;;5066348;28;20032;-58
2022/02/27 08:00:09;;;;;;;22.15;7.05;;;;;;;;;;5068678;28;20028;-58
2022/02/27 08:02:35;;;;;;;14.88;7.00;;;;;;;;;;5067884;28;20100;-57
2022/02/27 08:05:00;;;;;;;15.90;6.80;;;;;;;;;;5068084;28;20399;-57
2022/02/27 08:07:26;;;;;;;16.55;7.68;;;;;;;;;;5068177;28;20071;-57
2022/02/27 08:09:51;;;;;;;20.20;7.18;;;;;;;;;;5068542;28;20566;-59
2022/02/27 08:12:16;;;;;;;17.15;8.25;;;;;;;;;;5066346;28;20031;-57
2022/02/27 08:14:46;;;;;;;15.43;7.30;;;;;;;;;;5067364;28;20409;-58
2022/02/27 08:17:12;;;;;;;16.13;8.02;;;;;;;;;;5066426;28;20395;-57
2022/02/27 08:19:37;;;;;;;24.73;7.68;;;;;;;;;;5065460;28;20044;-57
2022/02/27 08:22:03;;;;;;;13.85;7.13;;;;;;;;;;5065305;28;20028;-58
2022/02/27 08:24:28;;;;;;;21.20;8.13;;;;;;;;;;5067350;28;20028;-58
2022/02/27 08:26:54;;;;;;;18.85;7.50;;;;;;;;;;5064276;28;20177;-58
2022/02/27 08:29:19;;;;;;;14.38;7.57;;;;;;;;;;5067247;28;20514;-57
2022/02/27 08:31:45;;;;;;;18.10;8.10;;;;;;;;;;5067104;28;20085;-58
2022/02/27 08:34:11;;;;;;;20.13;7.80;;;;;;;;;;5067457;28;20028;-58
2022/02/27 08:36:37;;;;;;;14.43;7.68;;;;;;;;;;5067700;28;20157;-58
2022/02/27 08:39:04;;;;;;;13.93;6.95;;;;;;;;;;5067350;28;20157;-58
2022/02/27 08:41:29;;;;;;;14.25;7.15;;;;;;;;;;5061751;28;20028;-56
2022/02/27 08:43:55;;;;;;;11.40;6.20;;;;;;;;;;5067262;28;20091;-58
2022/02/27 08:46:20;;;;;;;10.50;6.07;;;;;;;;;;5067842;28;20012;-59
2022/02/27 08:48:46;;;;;;;13.95;6.85;;;;;;;;;;5067841;28;20475;-56
2022/02/27 08:51:15;;;;;;;17.65;7.25;;;;;;;;;;5067897;28;20028;-58
2022/02/27 08:53:41;;;;;;;14.73;6.97;;;;;;;;;;5067896;28;20050;-58
2022/02/27 08:56:06;;;;;;;15.90;7.68;;;;;;;;;;5066618;28;20419;-58
2022/02/27 08:58:32;;;;;;;13.80;7.05;;;;;;;;;;5066764;28;20491;-57
2022/02/27 09:00:57;;;;;;;15.75;7.10;;;;;;;;;;5066876;28;20078;-56
2022/02/27 09:03:26;;;;;;;17.40;7.50;;;;;;;;;;5067551;28;20395;-59
2022/02/27 09:05:52;;;;;;;18.33;7.55;;;;;;;;;;5067124;28;20027;-59
2022/02/27 09:08:18;;;;;;;16.60;7.65;;;;;;;;;;5067328;28;20430;-59
2022/02/27 09:10:44;;;;;;;19.63;8.23;;;;;;;;;;5067830;28;20283;-58
2022/02/27 09:13:09;;;;;;;19.70;8.88;;;;;;;;;;5067539;28;20031;-58
2022/02/27 09:15:35;;;;;;;13.20;6.78;;;;;;;;;;5065495;28;20147;-58
2022/02/27 09:18:01;;;;;;;17.88;7.30;;;;;;;;;;5064042;28;20051;-58
2022/02/27 09:20:27;;;;;;;18.02;7.60;;;;;;;;;;5067803;28;20013;-57
2022/02/27 09:22:52;;;;;;;15.50;7.90;;;;;;;;;;5067660;28;20082;-57
2022/02/27 09:25:18;;;;;;;12.82;6.95;;;;;;;;;;5067144;28;20539;-58
2022/02/27 09:27:43;;;;;;;15.25;7.53;;;;;;;;;;5069117;28;20626;-58
2022/02/27 09:30:12;;;;;;;14.63;6.72;;;;;;;;;;5063425;28;20091;-56
2022/02/27 09:32:38;;;;;;;13.60;7.20;;;;;;;;;;5071106;28;20033;-58
2022/02/27 09:35:04;;;;;;;14.55;6.55;;;;;;;;;;5066680;28;20025;-58
2022/02/27 09:37:30;;;;;;;16.38;7.68;;;;;;;;;;5070183;28;20032;-58
2022/02/27 09:39:58;;;;;;;15.15;7.07;;;;;;;;;;5071693;28;20120;-59
2022/02/27 09:42:34;;;;;;;11.63;6.10;;;;;;;;;;5063269;28;20032;-58
2022/02/27 09:45:00;;;;;;;19.70;7.90;;;;;;;;;;5070651;28;20082;-58
2022/02/27 09:47:27;;;;;;;11.70;6.32;;;;;;;;;;5070792;28;20133;-58
2022/02/27 09:49:53;;;;;;;12.35;6.80;;;;;;;;;;5071215;28;20028;-59
2022/02/27 09:52:20;;;;;;;11.40;6.53;;;;;;;;;;5071008;28;20058;-59
2022/02/27 09:54:46;;;;;;;15.80;6.80;;;;;;;;;;5071232;28;20107;-57
2022/02/27 09:57:22;;;;;;;12.48;6.53;;;;;;;;;;5070988;28;20432;-57
2022/02/27 09:59:47;;;;;;;13.73;5.97;;;;;;;;;;5066967;28;20051;-58
2022/02/27 10:02:13;;;;;;;11.35;5.60;;;;;;;;;;5070040;28;20024;-58
2022/02/27 10:04:41;;;;;;;12.18;6.20;;;;;;;;;;5070411;28;20039;-58
2022/02/27 10:07:17;;;;;;;13.85;5.75;;;;;;;;;;5070920;28;20304;-58
2022/02/27 10:09:44;;;;;;;11.88;6.50;;;;;;;;;;5070057;28;20035;-58
2022/02/27 10:12:20;;;;;;;14.18;5.70;;;;;;;;;;5070380;28;20032;-59
2022/02/27 10:15:07;;;;;;;11.18;6.20;;;;;;;;;;5069304;28;20037;-58
2022/02/27 10:17:41;;;;;;;13.52;6.72;;;;;;;;;;5062985;28;20043;-59
2022/02/27 10:20:12;;;;;;;11.95;6.82;;;;;;;;;;5070568;28;20028;-59
2022/02/27 10:22:41;;;;;;;12.30;6.70;;;;;;;;;;5071636;28;20088;-58
2022/02/27 10:25:11;;;;;;;12.23;6.35;;;;;;;;;;5068409;28;20024;-58
2022/02/27 10:27:40;;;;;;;12.77;5.68;;;;;;;;;;5069935;28;20450;-57
2022/02/27 10:30:16;;;;;;;12.57;6.35;;;;;;;;;;5070404;28;20036;-59
2022/02/27 10:32:59;;;;;;;11.68;6.80;;;;;;;;;;5065691;28;20106;-59
2022/02/27 10:35:48;;;;;;;12.00;6.40;;;;;;;;;;5070051;28;20080;-58
2022/02/27 10:38:17;;;;;;;13.52;6.68;;;;;;;;;;5067677;28;20568;-58
2022/02/27 10:40:49;;;;;;;14.25;6.30;;;;;;;;;;5068966;28;20025;-59
2022/02/27 10:43:17;;;;;;;12.65;5.82;;;;;;;;;;5070474;28;20178;-58
2022/02/27 10:45:43;;;;;;;14.20;6.32;;;;;;;;;;5069082;28;20443;-59
2022/02/27 10:48:14;;;;;;;13.27;6.30;;;;;;;;;;5068912;28;20154;-60
2022/02/27 10:50:43;;;;;;;15.95;8.60;;;;;;;;;;5065142;28;20032;-57
2022/02/27 10:53:12;;;;;;;12.25;6.53;;;;;;;;;;5069785;28;20028;-58
2022/02/27 10:55:37;;;;;;;11.30;6.00;;;;;;;;;;5069914;28;20075;-59
2022/02/27 10:58:04;;;;;;;14.45;7.13;;;;;;;;;;5068122;28;20025;-58
2022/02/27 11:00:32;;;;;;;14.25;7.00;;;;;;;;;;5069549;28;20052;-58
2022/02/27 11:03:03;;;;;;;13.70;6.50;;;;;;;;;;5069699;28;20028;-58
2022/02/27 11:05:34;;;;;;;15.05;6.65;;;;;;;;;;5068629;28;20048;-60
2022/02/27 11:08:02;;;;;;;14.18;7.05;;;;;;;;;;5067952;28;20043;-57
2022/02/27 11:10:30;;;;;;;15.38;7.28;;;;;;;;;;5069359;28;20067;-59
2022/02/27 11:13:00;;;;;;;16.65;6.80;;;;;;;;;;5069485;28;20021;-58
2022/02/27 11:15:26;;;;;;;14.90;7.90;;;;;;;;;;5068667;28;20060;-57
2022/02/27 11:17:52;;;;;;;14.85;7.07;;;;;;;;;;5068626;28;20055;-59
2022/02/27 11:20:20;;;;;;;11.77;6.47;;;;;;;;;;5068860;28;20024;-59
2022/02/27 11:22:47;;;;;;;12.65;6.70;;;;;;;;;;5069040;28;20075;-58
2022/02/27 11:25:13;;;;;;;17.92;7.85;;;;;;;;;;5069453;28;20036;-58
2022/02/27 11:27:47;;;;;;;13.23;7.10;;;;;;;;;;5068063;28;20097;-59
2022/02/27 11:30:16;;;;;;;12.45;6.20;;;;;;;;;;5069083;28;20039;-58
2022/02/27 11:32:48;;;;;;;19.50;8.00;;;;;;;;;;5069145;28;20100;-58
2022/02/27 11:35:32;;;;;;;15.10;7.15;;;;;;;;;;5067688;28;20107;-58
2022/02/27 11:37:58;;;;;;;14.77;6.88;;;;;;;;;;5068371;28;20025;-58
2022/02/27 11:40:30;;;;;;;13.13;6.72;;;;;;;;;;5069398;28;20020;-59
2022/02/27 11:43:00;;;;;;;12.90;7.20;;;;;;;;;;5069489;28;20020;-57
2022/02/27 11:45:34;;;;;;;10.85;6.38;;;;;;;;;;5068803;28;20020;-58
2022/02/27 11:48:01;;;;;;;10.95;6.75;;;;;;;;;;5068418;28;20024;-58
2022/02/27 11:50:29;;;;;;;10.43;6.32;;;;;;;;;;5067820;28;20031;-58
2022/02/27 11:52:55;;;;;;;10.23;5.80;;;;;;;;;;5067431;28;20416;-59
2022/02/27 11:55:43;;;;;;;11.27;6.40;;;;;;;;;;5068832;28;20012;-58
2022/02/27 11:58:43;;;;;;;12.13;6.75;;;;;;;;;;5067898;28;20032;-59
2022/02/27 12:01:11;;;;;;;11.73;5.75;;;;;;;;;;5066011;28;20032;-60
2022/02/27 12:03:37;;;;;;;10.82;6.03;;;;;;;;;;5067199;28;20507;-59
2022/02/27 12:06:08;;;;;;;11.45;6.10;;;;;;;;;;5066249;28;20101;-59
2022/02/27 12:08:50;;;;;;;9.57;5.70;;;;;;;;;;5067632;28;20060;-59
2022/02/27 12:11:29;;;;;;;8.73;4.95;;;;;;;;;;5067481;28;20056;-58
2022/02/27 12:14:13;;;;;;;9.80;5.85;;;;;;;;;;5069038;28;20343;-58
2022/02/27 12:16:46;;;;;;;9.50;6.30;;;;;;;;;;5066617;28;20032;-59
2022/02/27 12:19:26;;;;;;;11.20;5.63;;;;;;;;;;5063449;28;20029;-58
2022/02/27 12:21:56;;;;;;;8.43;5.45;;;;;;;;;;5067537;28;20482;-59
2022/02/27 12:24:32;;;;;;;11.23;5.75;;;;;;;;;;5067265;28;20043;-57
2022/02/27 12:27:05;;;;;;;12.13;6.75;;;;;;;;;;5068170;28;20523;-57
2022/02/27 12:29:38;;;;;;;9.65;6.07;;;;;;;;;;5067753;28;20484;-60
2022/02/27 12:32:09;;;;;;;11.23;5.90;;;;;;;;;;5067709;28;20047;-59
2022/02/27 12:34:36;;;;;;;12.27;6.22;;;;;;;;;;5067366;28;20024;-59
2022/02/27 12:37:04;;;;;;;10.68;6.07;;;;;;;;;;5068110;28;20111;-59
2022/02/27 12:39:36;;;;;;;9.20;6.15;;;;;;;;;;5067452;28;20489;-60
2022/02/27 12:42:05;;;;;;;13.23;5.90;;;;;;;;;;5067679;28;20468;-58
2022/02/27 12:44:37;;;;;;;10.35;5.80;;;;;;;;;;5068617;28;20029;-58
2022/02/27 12:47:05;;;;;;;9.57;5.40;;;;;;;;;;5067874;28;20467;-58
2022/02/27 12:52:26;;;;;;;10.25;5.78;;;;;;;;;;5060096;28;20124;-57
2022/02/27 12:54:55;;;;;;;8.73;5.70;;;;;;;;;;5068265;28;20448;-58
2022/02/27 12:57:20;;;;;;;9.23;5.22;;;;;;;;;;5067840;28;20034;-59
2022/02/27 12:59:47;;;;;;;10.57;5.32;;;;;;;;;;5064721;28;20032;-59
2022/02/27 13:02:23;;;;;;;10.50;5.90;;;;;;;;;;5064382;28;20028;-59
2022/02/27 13:04:49;;;;;;;9.68;5.38;;;;;;;;;;5069918;28;20032;-59
2022/02/27 13:07:18;;;;;;;11.25;5.93;;;;;;;;;;5069612;28;20112;-60
2022/02/27 13:09:45;;;;;;;12.00;6.00;;;;;;;;;;5066748;28;20043;-59
2022/02/27 13:12:15;;;;;;;11.05;6.03;;;;;;;;;;5066828;28;20021;-58
2022/02/27 13:14:42;;;;;;;;;;;;;;;;;;5069052;28;20034;-59
2022/02/27 13:17:14;;;;;;;10.32;5.20;;;;;;;;;;5067450;28;20344;-57
2022/02/27 13:19:39;;;;;;;11.90;5.57;;;;;;;;;;5063711;28;20464;-59
2022/02/27 13:22:09;;;;;;;8.77;5.13;;;;;;;;;;5064628;28;20351;-60
2022/02/27 13:24:43;;;;;;;;;;;;;;;;;;5067444;28;20034;-59
2022/02/27 13:27:10;;;;;;;8.32;4.95;;;;;;;;;;5066467;28;19908;-59
2022/02/27 13:29:51;;;;;;;10.82;6.30;;;;;;;;;;5064417;28;20091;-58
2022/02/27 13:32:29;;;;;;;8.43;5.53;;;;;;;;;;5068276;28;20187;-59
2022/02/27 13:35:03;;;;;;;11.38;5.53;;;;;;;;;;5069664;28;20084;-59
2022/02/27 13:37:34;;;;;;;12.85;5.57;;;;;;;;;;5065943;28;20171;-59
2022/02/27 13:40:15;;;;;;;10.70;5.32;;;;;;;;;;5072151;28;20016;-59
2022/02/27 13:42:44;;;;;;;10.23;5.78;;;;;;;;;;5071869;28;20073;-60
2022/02/27 13:45:12;;;;;;;8.37;5.17;;;;;;;;;;5064134;28;20025;-59
2022/02/27 13:47:38;;;;;;;10.70;5.75;;;;;;;;;;5070302;28;20041;-59
2022/02/27 13:50:25;;;;;;;11.32;6.03;;;;;;;;;;5068993;28;20411;-59
2022/02/27 13:53:05;;;;;;;9.05;5.03;;;;;;;;;;5069515;28;20049;-60
2022/02/27 13:55:36;;;;;;;8.70;5.00;;;;;;;;;;5069781;28;20101;-59
2022/02/27 13:58:08;;;;;;;9.75;5.60;;;;;;;;;;5071391;28;20107;-59
2022/02/27 14:00:34;;;;;;;10.57;5.57;;;;;;;;;;5069496;28;20033;-59
2022/02/27 14:03:05;;;;;;;7.82;5.13;;;;;;;;;;5064647;28;20029;-59
2022/02/27 14:05:31;;;;;;;11.95;4.80;;;;;;;;;;5068827;28;20032;-58
2022/02/27 14:07:56;;;;;;;11.88;5.90;;;;;;;;;;5068036;28;20278;-58
2022/02/27 14:10:28;;;;;;;9.95;5.07;;;;;;;;;;5067021;28;20024;-59
2022/02/27 14:13:00;;;;;;;8.80;4.95;;;;;;;;;;5064912;28;20032;-59
2022/02/27 14:15:31;;;;;;;9.52;5.45;;;;;;;;;;5060272;28;20024;-59
2022/02/27 14:17:57;;;;;;;8.75;5.55;;;;;;;;;;5065315;28;20391;-59
2022/02/27 14:20:31;;;;;;;10.77;5.70;;;;;;;;;;5066014;28;20028;-59
2022/02/27 14:23:11;;;;;;;10.57;5.85;;;;;;;;;;5066868;28;20021;-58
2022/02/27 14:25:40;;;;;;;9.75;5.10;;;;;;;;;;5068325;28;20479;-58
2022/02/27 14:28:11;;;;;;;9.25;5.07;;;;;;;;;;5067200;28;20028;-59
2022/02/27 14:30:38;;;;;;;9.20;5.45;;;;;;;;;;5065081;28;20029;-59
2022/02/27 14:33:15;;;;;;;10.88;5.60;;;;;;;;;;5067077;28;20028;-59
2022/02/27 14:35:42;;;;;;;8.18;5.47;;;;;;;;;;5065364;28;20044;-59